createdAt,value
2023-03-27T00:03:35.824Z,16.20
2023-03-27T00:06:11.586Z,16.32
2023-03-27T00:08:39.766Z,16.40
2023-03-27T00:11:08.697Z,16.23
2023-03-27T00:13:49.410Z,16.28
2023-03-27T00:16:21.287Z,16.16
2023-03-27T00:18:50.273Z,16.07
2023-03-27T00:21:19.282Z,16.01
2023-03-27T00:23:48.970Z,16.02
2023-03-27T00:26:17.119Z,16.12
2023-03-27T00:28:45.342Z,16.19
2023-03-27T00:31:16.000Z,16.17
2023-03-27T00:33:44.946Z,16.16
2023-03-27T00:36:13.181Z,16.36
2023-03-27T00:38:41.359Z,16.42
2023-03-27T00:41:09.919Z,16.34
2023-03-27T00:43:42.298Z,16.35
2023-03-27T00:46:41.134Z,16.39
2023-03-27T00:49:13.210Z,16.41
2023-03-27T00:51:46.392Z,16.48
2023-03-27T00:54:18.132Z,16.52
2023-03-27T00:56:47.522Z,16.69
2023-03-27T00:59:19.914Z,16.71
2023-03-27T01:01:49.367Z,16.55
2023-03-27T01:04:19.870Z,16.31
2023-03-27T01:06:51.468Z,15.96
2023-03-27T01:09:21.395Z,16.04
2023-03-27T01:12:25.401Z,15.90
2023-03-27T01:15:05.226Z,15.91
2023-03-27T01:17:39.092Z,16.27
2023-03-27T01:20:32.708Z,16.67
2023-03-27T01:23:58.752Z,16.92
2023-03-27T01:26:56.948Z,17.29
2023-03-27T01:29:47.079Z,17.34
2023-03-27T01:32:57.209Z,17.55
2023-03-27T01:35:44.353Z,17.41
2023-03-27T01:38:21.965Z,17.51
2023-03-27T01:41:14.192Z,17.55
2023-03-27T01:43:48.902Z,17.69
2023-03-27T01:46:24.293Z,17.81
2023-03-27T01:49:23.609Z,17.94
2023-03-27T01:52:03.540Z,18.07
2023-03-27T01:54:37.573Z,18.26
2023-03-27T01:57:21.062Z,18.52
2023-03-27T02:00:18.690Z,18.38
2023-03-27T02:03:04.809Z,18.62
2023-03-27T02:05:39.280Z,18.59
2023-03-27T02:08:20.795Z,18.84
2023-03-27T02:10:55.945Z,18.78
2023-03-27T02:13:51.170Z,18.81
2023-03-27T02:16:24.650Z,18.73
2023-03-27T02:18:59.135Z,18.74
2023-03-27T02:21:27.823Z,18.78
2023-03-27T02:23:57.281Z,18.80
2023-03-27T02:26:25.958Z,18.62
2023-03-27T02:29:05.435Z,18.54
2023-03-27T02:31:48.604Z,18.23
2023-03-27T02:34:38.554Z,17.76
2023-03-27T02:37:34.302Z,18.29
2023-03-27T02:40:39.994Z,18.82
2023-03-27T02:43:18.349Z,18.99
2023-03-27T02:45:56.809Z,18.88
2023-03-27T02:48:33.949Z,18.91
2023-03-27T02:51:22.721Z,19.02
2023-03-27T02:54:02.133Z,18.83
2023-03-27T02:56:33.860Z,19.07
2023-03-27T02:59:08.491Z,19.19
2023-03-27T03:01:39.466Z,19.30
2023-03-27T03:04:36.319Z,19.62
2023-03-27T03:07:05.348Z,20.69
2023-03-27T03:09:34.350Z,22.24
2023-03-27T03:12:09.568Z,23.40
2023-03-27T03:14:41.077Z,24.07
2023-03-27T03:17:09.364Z,24.23
2023-03-27T03:19:38.176Z,24.33
2023-03-27T03:22:06.667Z,24.51
2023-03-27T03:24:35.250Z,24.86
2023-03-27T03:27:04.774Z,25.03
2023-03-27T03:29:33.239Z,24.14
2023-03-27T03:32:02.777Z,23.69
2023-03-27T03:34:30.933Z,23.48
2023-03-27T03:37:02.329Z,23.50
2023-03-27T03:39:31.198Z,23.38
2023-03-27T03:41:59.460Z,22.80
2023-03-27T03:44:28.026Z,22.74
2023-03-27T03:46:56.407Z,22.68
2023-03-27T03:49:25.337Z,22.77
2023-03-27T03:52:03.324Z,22.80
2023-03-27T03:54:32.938Z,22.97
2023-03-27T03:57:01.159Z,23.24
2023-03-27T03:59:29.464Z,23.17
2023-03-27T04:01:58.476Z,23.05
2023-03-27T04:04:27.290Z,22.88
2023-03-27T04:06:55.330Z,23.07
2023-03-27T04:09:23.372Z,23.00
2023-03-27T04:11:51.668Z,22.94
2023-03-27T04:14:19.933Z,22.97
2023-03-27T04:16:48.391Z,22.95
2023-03-27T04:19:17.455Z,22.84
2023-03-27T04:21:45.598Z,22.90
2023-03-27T04:24:14.282Z,22.64
2023-03-27T04:26:42.678Z,22.58
2023-03-27T04:29:10.923Z,22.74
2023-03-27T04:31:39.813Z,23.12
2023-03-27T04:34:07.992Z,23.30
2023-03-27T04:36:36.213Z,23.16
2023-03-27T04:39:04.511Z,22.73
2023-03-27T04:41:32.987Z,22.66
2023-03-27T04:44:01.156Z,22.55
2023-03-27T04:46:29.912Z,22.69
2023-03-27T04:48:58.278Z,22.50
2023-03-27T04:51:26.372Z,22.32
2023-03-27T04:53:54.949Z,22.29
2023-03-27T04:56:24.241Z,22.32
2023-03-27T04:58:52.333Z,22.75
2023-03-27T05:01:21.308Z,23.01
2023-03-27T05:03:49.720Z,23.30
2023-03-27T05:06:18.322Z,23.38
2023-03-27T05:08:46.825Z,23.70
2023-03-27T05:11:15.266Z,24.14
2023-03-27T05:13:44.035Z,24.69
2023-03-27T05:16:13.563Z,24.79
2023-03-27T05:18:42.801Z,25.02
2023-03-27T05:21:12.604Z,24.83
2023-03-27T05:23:41.068Z,25.27
2023-03-27T05:26:09.522Z,25.67
2023-03-27T05:28:39.420Z,25.91
2023-03-27T05:31:07.803Z,25.50
2023-03-27T05:33:36.421Z,24.96
2023-03-27T05:36:05.100Z,24.50
2023-03-27T05:38:33.168Z,24.22
2023-03-27T05:41:01.652Z,24.15
2023-03-27T05:43:29.771Z,24.22
2023-03-27T05:45:58.088Z,24.15
2023-03-27T05:48:27.100Z,24.16
2023-03-27T05:50:55.904Z,24.20
2023-03-27T05:53:28.445Z,24.59
2023-03-27T05:56:02.850Z,24.50
2023-03-27T05:58:32.730Z,24.74
2023-03-27T06:01:04.975Z,24.40
2023-03-27T06:03:36.814Z,24.53
2023-03-27T06:06:12.816Z,24.40
2023-03-27T06:08:41.028Z,24.51
2023-03-27T06:11:11.370Z,24.22
2023-03-27T06:13:40.064Z,24.08
2023-03-27T06:16:08.974Z,24.01
2023-03-27T06:18:37.693Z,23.88
2023-03-27T06:21:06.284Z,23.62
2023-03-27T06:23:34.454Z,23.76
2023-03-27T06:26:02.845Z,23.26
2023-03-27T06:28:31.323Z,23.29
2023-03-27T06:31:00.015Z,23.28
2023-03-27T06:33:28.193Z,23.12
2023-03-27T06:35:57.284Z,23.11
2023-03-27T06:38:31.210Z,22.91
2023-03-27T06:41:00.244Z,22.30
2023-03-27T06:43:28.597Z,21.55
2023-03-27T06:45:57.451Z,20.80
2023-03-27T06:48:26.227Z,19.69
2023-03-27T06:50:55.229Z,18.65
2023-03-27T06:53:27.759Z,17.98
2023-03-27T06:55:58.261Z,17.59
2023-03-27T06:58:26.758Z,17.22
2023-03-27T07:00:54.960Z,15.84
2023-03-27T07:03:23.585Z,15.19
2023-03-27T07:05:52.341Z,14.77
2023-03-27T07:08:24.755Z,13.97
2023-03-27T07:13:26.432Z,12.99
2023-03-27T07:15:54.642Z,12.83
2023-03-27T07:18:23.684Z,13.24
2023-03-27T07:20:52.273Z,13.36
2023-03-27T07:23:20.505Z,13.28
2023-03-27T07:25:49.681Z,13.63
2023-03-27T07:28:18.603Z,13.92
2023-03-27T07:30:47.057Z,13.49
2023-03-27T07:33:15.621Z,13.29
2023-03-27T07:35:45.859Z,13.13
2023-03-27T07:38:14.932Z,12.72
2023-03-27T07:40:44.798Z,12.13
2023-03-27T07:43:13.209Z,11.76
2023-03-27T07:45:42.353Z,11.51
2023-03-27T07:48:14.902Z,11.30
2023-03-27T07:50:43.623Z,11.64
2023-03-27T07:53:33.462Z,12.29
2023-03-27T07:56:00.772Z,12.09
2023-03-27T07:58:29.032Z,11.93
2023-03-27T08:01:01.064Z,11.52
2023-03-27T08:03:30.423Z,11.17
2023-03-27T08:06:00.584Z,10.67
2023-03-27T08:08:29.621Z,10.35
2023-03-27T08:10:59.785Z,9.83
2023-03-27T08:13:29.327Z,9.61
2023-03-27T08:16:09.956Z,9.66
2023-03-27T08:18:39.164Z,9.61
2023-03-27T08:21:08.922Z,9.77
2023-03-27T08:23:37.749Z,10.42
2023-03-27T08:26:07.364Z,11.08
2023-03-27T08:28:37.619Z,11.42
2023-03-27T08:31:13.077Z,11.31
2023-03-27T08:33:42.691Z,11.43
2023-03-27T08:36:11.516Z,12.07
2023-03-27T08:38:41.754Z,12.82
2023-03-27T08:41:28.268Z,13.07
2023-03-27T08:44:00.425Z,13.51
2023-03-27T08:46:37.604Z,13.81
2023-03-27T08:49:16.612Z,14.63
2023-03-27T08:51:56.122Z,15.00
2023-03-27T08:54:34.319Z,15.52
2023-03-27T08:57:16.864Z,15.75
2023-03-27T08:59:45.514Z,16.05
2023-03-27T09:02:41.761Z,15.91
2023-03-27T09:05:26.020Z,17.01
2023-03-27T09:08:05.752Z,17.30
2023-03-27T09:10:48.515Z,17.86
2023-03-27T09:13:30.304Z,18.82
2023-03-27T09:16:07.810Z,19.55
2023-03-27T09:18:41.395Z,20.24
2023-03-27T09:21:49.212Z,20.32
2023-03-27T09:24:46.947Z,20.04
2023-03-27T09:27:21.196Z,20.49
2023-03-27T09:30:15.090Z,20.62
2023-03-27T09:32:43.550Z,20.64
2023-03-27T09:35:15.748Z,21.06
2023-03-27T09:37:44.718Z,21.17
2023-03-27T09:40:26.065Z,21.26
2023-03-27T09:42:55.003Z,20.95
2023-03-27T09:45:23.260Z,20.16
2023-03-27T09:48:02.234Z,20.18
2023-03-27T09:50:35.649Z,20.60
2023-03-27T09:53:13.607Z,20.41
2023-03-27T09:56:11.964Z,20.15
2023-03-27T09:58:49.705Z,20.03
2023-03-27T10:01:18.823Z,19.64
2023-03-27T10:03:53.720Z,18.71
2023-03-27T10:06:38.891Z,18.56
2023-03-27T10:09:28.762Z,19.13
2023-03-27T10:12:23.347Z,18.79
2023-03-27T10:14:52.800Z,18.17
2023-03-27T10:17:33.623Z,18.10
2023-03-27T10:20:17.821Z,18.06
2023-03-27T10:22:55.137Z,17.82
2023-03-27T10:25:33.226Z,18.26
2023-03-27T10:28:09.368Z,18.32
2023-03-27T10:30:38.339Z,17.97
2023-03-27T10:33:07.488Z,17.96
2023-03-27T10:35:39.878Z,18.88
2023-03-27T10:38:14.588Z,18.69
2023-03-27T10:40:48.738Z,19.19
2023-03-27T10:43:25.336Z,19.47
2023-03-27T10:46:04.512Z,18.80
2023-03-27T10:48:57.695Z,18.36
2023-03-27T10:51:56.686Z,18.26
2023-03-27T10:55:07.871Z,18.63
2023-03-27T10:57:38.151Z,18.01
2023-03-27T11:00:19.817Z,17.79
2023-03-27T11:02:54.438Z,17.69
2023-03-27T11:05:28.189Z,17.83
2023-03-27T11:08:09.484Z,17.48
2023-03-27T11:10:42.941Z,17.15
2023-03-27T11:13:42.914Z,17.51
2023-03-27T11:16:23.984Z,18.60
2023-03-27T11:19:02.403Z,19.39
2023-03-27T11:21:42.237Z,18.97
2023-03-27T11:24:38.973Z,19.50
2023-03-27T11:27:24.529Z,20.09
2023-03-27T11:30:18.465Z,20.94
2023-03-27T11:33:01.783Z,21.19
2023-03-27T11:35:38.532Z,20.56
2023-03-27T11:38:30.245Z,20.27
2023-03-27T11:40:59.084Z,21.31
2023-03-27T11:43:28.292Z,21.36
2023-03-27T11:46:31.957Z,21.53
2023-03-27T11:49:42.390Z,22.26
2023-03-27T11:52:44.669Z,22.35
2023-03-27T11:55:32.566Z,22.33
2023-03-27T11:58:52.186Z,22.05
2023-03-27T12:01:52.547Z,22.74
2023-03-27T12:05:06.007Z,23.15
2023-03-27T12:07:52.293Z,23.81
2023-03-27T12:10:35.232Z,24.17
2023-03-27T12:13:40.544Z,25.05
2023-03-27T12:16:17.050Z,25.80
2023-03-27T12:19:28.340Z,26.37
2023-03-27T12:22:22.821Z,26.49
2023-03-27T12:25:20.207Z,26.98
2023-03-27T12:28:33.571Z,28.00
2023-03-27T12:31:31.882Z,28.54
2023-03-27T12:34:39.960Z,29.26
2023-03-27T12:37:13.012Z,30.38
2023-03-27T12:39:54.244Z,32.03
2023-03-27T12:42:48.467Z,32.65
2023-03-27T12:45:23.206Z,33.38
2023-03-27T12:48:17.997Z,34.22
2023-03-27T12:50:55.620Z,34.07
2023-03-27T12:53:29.774Z,34.26
2023-03-27T12:56:10.570Z,34.45
2023-03-27T12:58:40.252Z,34.41
2023-03-27T13:01:10.931Z,34.85
2023-03-27T13:04:01.453Z,35.31
2023-03-27T13:07:11.616Z,35.60
2023-03-27T13:09:54.588Z,35.97
2023-03-27T13:12:42.453Z,35.77
2023-03-27T13:15:23.020Z,36.09
2023-03-27T13:18:09.703Z,36.77
2023-03-27T13:20:46.698Z,37.48
2023-03-27T13:23:38.221Z,38.37
2023-03-27T13:26:30.925Z,40.01
2023-03-27T13:28:59.824Z,40.32
2023-03-27T13:32:02.808Z,40.06
2023-03-27T13:34:42.147Z,40.29
2023-03-27T13:37:10.356Z,40.47
2023-03-27T13:39:47.949Z,40.49
2023-03-27T13:42:44.946Z,40.31
2023-03-27T13:45:22.397Z,40.56
2023-03-27T13:48:23.978Z,40.88
2023-03-27T13:51:12.271Z,40.40
2023-03-27T13:53:47.063Z,40.66
2023-03-27T13:56:41.189Z,40.68
2023-03-27T13:59:44.058Z,40.88
2023-03-27T14:02:15.298Z,41.23
2023-03-27T14:05:19.495Z,41.57
2023-03-27T14:08:27.801Z,41.36
2023-03-27T14:11:35.593Z,41.15
2023-03-27T14:14:42.684Z,41.39
2023-03-27T14:17:35.515Z,41.68
2023-03-27T14:20:40.683Z,42.24
2023-03-27T14:23:28.519Z,41.73
2023-03-27T14:26:05.899Z,41.52
2023-03-27T14:28:55.607Z,41.53
2023-03-27T14:31:26.768Z,41.90
2023-03-27T14:34:00.668Z,42.18
2023-03-27T14:36:31.304Z,42.14
2023-03-27T14:39:20.037Z,42.50
2023-03-27T14:41:59.642Z,42.20
2023-03-27T14:44:31.832Z,42.17
2023-03-27T14:47:13.343Z,41.92
2023-03-27T14:49:48.823Z,41.57
2023-03-27T14:52:25.770Z,41.19
2023-03-27T14:54:55.746Z,40.89
2023-03-27T14:57:26.863Z,40.69
2023-03-27T14:59:56.863Z,41.23
2023-03-27T15:02:34.355Z,41.16
2023-03-27T15:05:13.368Z,41.11
2023-03-27T15:07:41.731Z,41.22
2023-03-27T15:10:20.917Z,40.82
2023-03-27T15:12:49.417Z,40.40
2023-03-27T15:15:37.868Z,40.42
2023-03-27T15:19:02.101Z,40.28
2023-03-27T15:21:44.701Z,40.48
2023-03-27T15:24:17.515Z,40.63
2023-03-27T15:26:50.520Z,40.18
2023-03-27T15:29:45.141Z,40.36
2023-03-27T15:32:16.298Z,40.23
2023-03-27T15:34:55.247Z,40.66
2023-03-27T15:37:26.033Z,40.54
2023-03-27T15:40:02.535Z,40.87
2023-03-27T15:42:44.579Z,41.04
2023-03-27T15:45:15.239Z,41.34
2023-03-27T15:47:44.504Z,41.20
2023-03-27T15:50:20.265Z,40.83
2023-03-27T15:52:51.427Z,40.37
2023-03-27T15:55:37.463Z,40.42
2023-03-27T15:58:23.197Z,40.17
2023-03-27T16:00:58.255Z,40.27
2023-03-27T16:03:27.685Z,40.13
2023-03-27T16:05:58.821Z,39.67
2023-03-27T16:08:36.525Z,39.89
2023-03-27T16:11:05.840Z,39.41
2023-03-27T16:14:01.712Z,38.84
2023-03-27T16:16:32.689Z,38.55
2023-03-27T16:19:12.376Z,38.72
2023-03-27T16:21:55.171Z,38.21
2023-03-27T16:24:23.324Z,38.34
2023-03-27T16:26:53.196Z,38.41
2023-03-27T16:29:22.806Z,38.34
2023-03-27T16:31:50.996Z,38.50
2023-03-27T16:34:22.232Z,38.94
2023-03-27T16:36:52.172Z,39.45
2023-03-27T16:39:20.958Z,40.12
2023-03-27T16:41:49.032Z,40.60
2023-03-27T16:44:17.631Z,40.80
2023-03-27T16:46:45.947Z,40.83
2023-03-27T16:49:14.079Z,41.28
2023-03-27T16:51:43.311Z,41.76
2023-03-27T16:54:11.488Z,41.83
2023-03-27T16:56:40.702Z,41.85
2023-03-27T16:59:09.038Z,41.61
2023-03-27T17:01:37.257Z,41.03
2023-03-27T17:04:05.624Z,40.86
2023-03-27T17:06:33.882Z,40.63
2023-03-27T17:09:02.044Z,40.35
2023-03-27T17:11:30.858Z,40.05
2023-03-27T17:13:59.123Z,39.89
2023-03-27T17:16:27.612Z,40.23
2023-03-27T17:18:56.077Z,40.71
2023-03-27T17:21:25.987Z,41.13
2023-03-27T17:23:54.790Z,41.38
2023-03-27T17:26:23.870Z,41.26
2023-03-27T17:28:52.766Z,41.64
2023-03-27T17:31:21.292Z,41.98
2023-03-27T17:33:50.152Z,42.28
2023-03-27T17:36:29.823Z,42.41
2023-03-27T17:39:03.306Z,42.32
2023-03-27T17:41:32.663Z,42.07
2023-03-27T17:44:00.758Z,42.13
2023-03-27T17:46:29.215Z,42.20
2023-03-27T17:48:57.853Z,42.49
2023-03-27T17:51:26.494Z,42.79
2023-03-27T17:53:55.024Z,42.97
2023-03-27T17:56:23.356Z,42.95
2023-03-27T17:58:51.471Z,43.05
2023-03-27T18:01:22.240Z,42.87
2023-03-27T18:03:51.928Z,43.27
2023-03-27T18:06:20.430Z,43.22
2023-03-27T18:08:48.650Z,43.14
2023-03-27T18:11:17.230Z,42.86
2023-03-27T18:13:45.445Z,43.00
2023-03-27T18:16:13.540Z,42.94
2023-03-27T18:18:42.022Z,42.90
2023-03-27T18:21:10.071Z,42.83
2023-03-27T18:23:46.562Z,42.82
2023-03-27T18:26:16.549Z,42.88
2023-03-27T18:28:45.838Z,42.84
2023-03-27T18:31:14.439Z,42.97
2023-03-27T18:33:42.628Z,43.04
2023-03-27T18:36:11.186Z,42.94
2023-03-27T18:38:40.906Z,42.98
2023-03-27T18:41:10.857Z,43.18
2023-03-27T18:43:38.986Z,43.14
2023-03-27T18:46:08.076Z,43.19
2023-03-27T18:48:37.366Z,43.02
2023-03-27T18:51:06.635Z,43.22
2023-03-27T18:53:36.427Z,43.29
2023-03-27T18:56:04.988Z,42.97
2023-03-27T18:58:35.153Z,42.95
2023-03-27T19:01:07.909Z,43.12
2023-03-27T19:03:37.623Z,43.37
2023-03-27T19:06:08.212Z,43.55
2023-03-27T19:08:38.143Z,43.53
2023-03-27T19:11:06.961Z,43.62
2023-03-27T19:13:36.228Z,43.50
2023-03-27T19:16:15.202Z,43.44
2023-03-27T19:18:43.844Z,43.40
2023-03-27T19:21:12.403Z,43.53
2023-03-27T19:23:40.610Z,43.42
2023-03-27T19:26:11.536Z,43.77
2023-03-27T19:28:39.609Z,43.66
2023-03-27T19:31:09.568Z,43.69
2023-03-27T19:33:38.708Z,43.75
2023-03-27T19:36:07.782Z,43.75
2023-03-27T19:38:36.159Z,43.86
2023-03-27T19:41:09.137Z,43.88
2023-03-27T19:43:37.649Z,43.92
2023-03-27T19:46:15.666Z,44.02
2023-03-27T19:48:46.348Z,43.88
2023-03-27T19:51:14.549Z,43.89
2023-03-27T19:53:42.771Z,43.93
2023-03-27T19:56:11.272Z,44.15
2023-03-27T19:58:39.420Z,44.06
2023-03-27T20:01:07.920Z,44.27
2023-03-27T20:03:36.690Z,44.13
2023-03-27T20:06:06.887Z,44.11
2023-03-27T20:08:36.869Z,44.34
2023-03-27T20:11:05.760Z,44.01
2023-03-27T20:13:42.468Z,44.33
2023-03-27T20:16:13.958Z,44.30
2023-03-27T20:18:42.256Z,44.41
2023-03-27T20:21:11.316Z,44.64
2023-03-27T20:23:40.873Z,45.01
2023-03-27T20:26:09.497Z,44.93
2023-03-27T20:28:38.001Z,45.03
2023-03-27T20:31:07.093Z,44.77
2023-03-27T20:33:35.419Z,44.80
2023-03-27T20:36:03.807Z,44.99
2023-03-27T20:38:33.152Z,45.26
2023-03-27T20:41:03.439Z,45.47
2023-03-27T20:43:33.293Z,45.22
2023-03-27T20:46:03.476Z,45.26
2023-03-27T20:48:31.886Z,45.42
2023-03-27T20:51:00.638Z,45.27
2023-03-27T20:53:29.625Z,45.24
2023-03-27T20:56:02.182Z,45.47
2023-03-27T20:58:38.310Z,45.33
2023-03-27T21:01:08.460Z,45.55
2023-03-27T21:03:39.406Z,45.59
2023-03-27T21:06:20.402Z,45.44
2023-03-27T21:08:48.978Z,45.69
2023-03-27T21:11:17.865Z,45.55
2023-03-27T21:13:46.418Z,45.69
2023-03-27T21:16:14.985Z,45.71
2023-03-27T21:18:43.919Z,45.67
2023-03-27T21:21:12.215Z,45.88
2023-03-27T21:23:40.388Z,45.84
2023-03-27T21:26:09.576Z,46.01
2023-03-27T21:28:38.017Z,45.96
2023-03-27T21:31:10.686Z,45.59
2023-03-27T21:33:39.444Z,45.77
2023-03-27T21:36:08.303Z,45.75
2023-03-27T21:38:36.873Z,45.79
2023-03-27T21:41:06.225Z,45.77
2023-03-27T21:43:34.920Z,45.94
2023-03-27T21:46:03.286Z,45.65
2023-03-27T21:48:32.213Z,45.70
2023-03-27T21:51:02.506Z,45.81
2023-03-27T21:53:30.649Z,45.95
2023-03-27T21:55:59.333Z,45.89
2023-03-27T21:58:28.392Z,46.01
2023-03-27T22:00:58.198Z,46.01
2023-03-27T22:03:28.452Z,45.86
2023-03-27T22:08:38.414Z,45.88
2023-03-27T22:11:07.724Z,46.01
2023-03-27T22:13:37.490Z,45.98
2023-03-27T22:16:11.513Z,46.07
2023-03-27T22:18:40.541Z,45.91
2023-03-27T22:21:13.189Z,45.84
2023-03-27T22:23:41.411Z,45.78
2023-03-27T22:26:11.436Z,45.83
2023-03-27T22:28:39.931Z,45.83
2023-03-27T22:31:08.536Z,45.66
2023-03-27T22:33:37.255Z,45.70
2023-03-27T22:36:11.240Z,45.74
2023-03-27T22:38:40.752Z,45.62
2023-03-27T22:41:11.409Z,45.90
2023-03-27T22:43:40.517Z,45.73
2023-03-27T22:46:12.861Z,45.70
2023-03-27T22:48:41.512Z,45.50
2023-03-27T22:51:12.414Z,45.52
2023-03-27T22:53:40.748Z,45.53
2023-03-27T22:56:09.288Z,45.57
2023-03-27T22:58:37.602Z,45.53
2023-03-27T23:01:07.414Z,45.42
2023-03-27T23:03:36.573Z,45.41
2023-03-27T23:06:05.536Z,45.16
2023-03-27T23:08:34.160Z,45.38
2023-03-27T23:11:05.107Z,45.59
2023-03-27T23:13:34.961Z,45.66
2023-03-27T23:16:03.170Z,45.45
2023-03-27T23:18:31.435Z,45.47
2023-03-27T23:21:02.166Z,45.51
2023-03-27T23:23:32.407Z,45.53
2023-03-27T23:26:00.917Z,45.31
2023-03-27T23:28:33.066Z,45.57
2023-03-27T23:31:04.439Z,45.57
2023-03-27T23:33:39.598Z,45.56
2023-03-27T23:36:14.484Z,45.63
2023-03-27T23:38:43.423Z,45.67
2023-03-27T23:41:13.779Z,45.65
2023-03-27T23:43:42.468Z,45.68
2023-03-27T23:46:11.405Z,45.68
2023-03-27T23:48:41.149Z,45.51
2023-03-27T23:51:14.245Z,45.56
2023-03-27T23:53:43.035Z,45.80
2023-03-27T23:56:12.130Z,45.75
2023-03-27T23:58:40.834Z,45.76
